Time;durP1;ratioP1;P1;durP2;ratioP2;P2;SDS_P1;SDS_P2;PMS_P1;PMS_P2;Temp;Humidity;BMP_temperature;BMP_pressure;BME280_temperature;BME280_humidity;BME280_pressure;Samples;Min_cycle;Max_cycle;Signal;HPM_P1;HPM_P2
2023/09/11 00:00:08;;;;;;;26.58;23.75;;;20.60;99.90;;;;;;5056965;28;20036;-73
2023/09/11 00:02:34;;;;;;;30.95;23.50;;;20.50;99.90;;;;;;5062503;28;20046;-73
2023/09/11 00:04:59;;;;;;;24.67;20.45;;;20.50;99.90;;;;;;5065347;28;20040;-73
2023/09/11 00:07:25;;;;;;;30.23;23.10;;;20.40;99.90;;;;;;5063040;28;20501;-73
2023/09/11 00:09:51;;;;;;;23.88;20.98;;;20.40;99.90;;;;;;5068827;28;20165;-73
2023/09/11 00:12:18;;;;;;;30.75;23.58;;;20.30;99.90;;;;;;5061072;28;20298;-72
2023/09/11 00:14:44;;;;;;;27.42;19.85;;;20.30;99.90;;;;;;5059511;28;20495;-73
2023/09/11 00:17:10;;;;;;;30.08;24.58;;;20.30;99.90;;;;;;5061035;28;20101;-73
2023/09/11 00:19:36;;;;;;;28.25;25.35;;;20.30;99.90;;;;;;5054653;28;20041;-73
2023/09/11 00:22:02;;;;;;;31.58;27.00;;;20.30;99.90;;;;;;5056903;28;20392;-73
2023/09/11 00:24:31;;;;;;;27.33;24.58;;;20.20;99.90;;;;;;5060472;28;20051;-73
2023/09/11 00:26:57;;;;;;;31.60;28.15;;;20.30;99.90;;;;;;5066582;28;20044;-73
2023/09/11 00:29:22;;;;;;;21.35;18.38;;;20.20;99.90;;;;;;5057572;28;20053;-73
2023/09/11 00:31:48;;;;;;;34.47;28.85;;;20.10;99.90;;;;;;5022994;28;20045;-73
2023/09/11 00:34:14;;;;;;;32.42;26.13;;;20.20;99.90;;;;;;5054518;28;20052;-73
2023/09/11 00:36:40;;;;;;;26.58;22.90;;;20.10;99.90;;;;;;5052389;28;20061;-73
2023/09/11 00:39:05;;;;;;;31.38;28.02;;;20.10;99.90;;;;;;5037618;28;20032;-73
2023/09/11 00:41:31;;;;;;;27.08;22.83;;;20.10;99.90;;;;;;5040550;28;20036;-73
2023/09/11 00:43:57;;;;;;;28.20;21.48;;;20.00;99.90;;;;;;5055281;28;20032;-73
2023/09/11 00:46:23;;;;;;;27.05;21.90;;;20.00;99.90;;;;;;5038048;28;20057;-73
2023/09/11 00:48:55;;;;;;;27.35;22.05;;;20.00;99.90;;;;;;5054441;28;20052;-73
2023/09/11 00:51:21;;;;;;;33.70;25.52;;;20.00;99.90;;;;;;5056183;28;20052;-72
2023/09/11 00:53:47;;;;;;;31.20;24.98;;;20.00;99.90;;;;;;5040482;28;20058;-73
2023/09/11 00:56:13;;;;;;;30.88;23.35;;;20.00;99.90;;;;;;5057258;28;20048;-73
2023/09/11 00:58:39;;;;;;;28.20;24.83;;;20.00;99.90;;;;;;5039217;28;20509;-73
2023/09/11 01:01:05;;;;;;;22.77;20.02;;;20.00;99.90;;;;;;5055969;28;20390;-72
2023/09/11 01:03:31;;;;;;;28.95;21.85;;;19.90;99.90;;;;;;5053588;28;20051;-73
2023/09/11 01:05:57;;;;;;;26.40;22.63;;;19.90;99.90;;;;;;5071512;28;20127;-73
2023/09/11 01:08:23;;;;;;;29.88;24.98;;;19.90;99.90;;;;;;5054708;28;20114;-73
2023/09/11 01:10:49;;;;;;;26.45;21.13;;;19.90;99.90;;;;;;5040479;28;20048;-73
2023/09/11 01:13:15;;;;;;;25.48;20.40;;;19.90;99.90;;;;;;5054106;28;20162;-73
2023/09/11 01:15:51;;;;;;;27.88;22.17;;;19.90;99.90;;;;;;5038485;28;20043;-73
2023/09/11 01:18:33;;;;;;;31.17;24.70;;;20.00;99.90;;;;;;5054145;28;20049;-73
2023/09/11 01:21:01;;;;;;;29.08;22.10;;;20.00;99.90;;;;;;5055618;28;20074;-73
2023/09/11 01:23:39;;;;;;;25.73;22.33;;;20.00;99.90;;;;;;5038632;28;20033;-73
2023/09/11 01:26:30;;;;;;;33.08;24.42;;;19.90;99.90;;;;;;5051102;28;20036;-72
2023/09/11 01:29:08;;;;;;;;;;;19.90;99.90;;;;;;5090927;28;20037;-73
2023/09/11 01:31:36;;;;;;;24.27;21.75;;;19.90;99.90;;;;;;5054941;28;19920;-73
2023/09/11 01:34:06;;;;;;;28.33;25.42;;;19.80;99.90;;;;;;5053779;28;20071;-73
2023/09/11 01:36:32;;;;;;;28.30;25.15;;;19.90;99.90;;;;;;5032684;28;20510;-73
2023/09/11 01:38:58;;;;;;;31.50;27.17;;;19.90;99.90;;;;;;5033458;28;20037;-73
2023/09/11 01:41:33;;;;;;;35.45;27.27;;;19.80;99.90;;;;;;5056532;28;20268;-73
2023/09/11 01:44:04;;;;;;;30.67;24.92;;;19.80;99.90;;;;;;5057265;28;20055;-73
2023/09/11 01:46:31;;;;;;;28.30;24.73;;;19.80;99.90;;;;;;5057918;28;20053;-73
2023/09/11 01:49:02;;;;;;;25.45;22.80;;;19.80;99.90;;;;;;5058029;28;20091;-73
2023/09/11 01:51:30;;;;;;;29.23;25.10;;;19.80;99.90;;;;;;5055389;28;20043;-73
2023/09/11 01:54:00;;;;;;;28.40;23.52;;;19.80;99.90;;;;;;5055936;28;20052;-73
2023/09/11 01:56:26;;;;;;;28.92;24.85;;;19.80;99.90;;;;;;5056232;28;20099;-74
2023/09/11 01:58:54;;;;;;;29.70;23.27;;;19.80;99.90;;;;;;5059041;28;20041;-73
2023/09/11 02:01:20;;;;;;;26.67;23.15;;;19.80;99.90;;;;;;5056816;28;20435;-73
2023/09/11 02:03:46;;;;;;;27.25;22.13;;;19.70;99.90;;;;;;5033993;28;20055;-73
2023/09/11 02:06:11;;;;;;;38.75;26.70;;;19.70;99.90;;;;;;5057052;28;20120;-72
2023/09/11 02:08:39;;;;;;;29.00;23.48;;;19.80;99.90;;;;;;5043626;28;20055;-73
2023/09/11 02:11:07;;;;;;;24.02;21.48;;;19.80;99.90;;;;;;5091059;28;20064;-72
2023/09/11 02:13:32;;;;;;;25.80;22.98;;;19.80;99.90;;;;;;5061780;28;20056;-73
2023/09/11 02:15:58;;;;;;;31.48;24.48;;;19.70;99.90;;;;;;5054550;28;20036;-73
2023/09/11 02:18:27;;;;;;;30.60;22.45;;;19.70;99.90;;;;;;5057850;28;20070;-73
2023/09/11 02:20:53;;;;;;;31.73;25.13;;;19.70;99.90;;;;;;5042875;28;20567;-73
2023/09/11 02:23:18;;;;;;;26.45;23.65;;;19.70;99.90;;;;;;5057245;28;20037;-73
2023/09/11 02:25:46;;;;;;;29.67;25.58;;;19.60;99.90;;;;;;5042205;28;20464;-73
2023/09/11 02:28:11;;;;;;;25.48;22.40;;;19.60;99.90;;;;;;5077516;28;20091;-73
2023/09/11 02:30:37;;;;;;;31.90;22.95;;;19.60;99.90;;;;;;5058937;28;20138;-72
2023/09/11 02:33:03;;;;;;;27.60;22.80;;;19.60;99.90;;;;;;5039438;28;20044;-73
2023/09/11 02:35:31;;;;;;;26.13;22.13;;;19.60;99.90;;;;;;5057275;28;20047;-73
2023/09/11 02:37:57;;;;;;;27.40;22.10;;;19.60;99.90;;;;;;5056747;28;20040;-73
2023/09/11 02:40:23;;;;;;;28.23;23.30;;;19.60;99.90;;;;;;5073983;28;20117;-73
2023/09/11 02:42:48;;;;;;;28.60;22.58;;;19.60;99.90;;;;;;5051458;28;20043;-73
2023/09/11 02:45:14;;;;;;;26.92;20.42;;;19.60;99.90;;;;;;5057610;28;20104;-73
2023/09/11 02:47:43;;;;;;;30.92;26.02;;;19.60;99.90;;;;;;5057004;28;20056;-73
2023/09/11 02:50:09;;;;;;;30.23;23.13;;;19.60;99.90;;;;;;5055731;28;20076;-73
2023/09/11 02:52:34;;;;;;;23.58;20.90;;;19.50;99.90;;;;;;5056356;28;20144;-73
2023/09/11 02:55:00;;;;;;;32.70;22.85;;;19.60;99.90;;;;;;5036473;28;20068;-73
2023/09/11 02:57:26;;;;;;;23.17;20.33;;;19.50;99.90;;;;;;5052672;28;20067;-73
2023/09/11 02:59:55;;;;;;;28.33;23.15;;;19.60;99.90;;;;;;5065411;28;20555;-73
2023/09/11 03:02:21;;;;;;;30.20;23.98;;;19.50;99.90;;;;;;5071566;28;20043;-73
2023/09/11 03:04:50;;;;;;;26.63;20.63;;;19.50;99.90;;;;;;5058458;28;20056;-73
2023/09/11 03:07:17;;;;;;;31.98;26.33;;;19.50;99.90;;;;;;5061530;28;20051;-73
2023/09/11 03:09:47;;;;;;;28.77;21.48;;;19.50;99.90;;;;;;5059705;28;20052;-73
2023/09/11 03:12:13;;;;;;;27.45;22.15;;;19.50;99.90;;;;;;5051640;28;20502;-73
2023/09/11 03:14:41;;;;;;;29.20;25.13;;;19.50;99.90;;;;;;5051638;28;20043;-73
2023/09/11 03:17:08;;;;;;;34.90;27.05;;;19.50;99.90;;;;;;5066843;28;20044;-73
2023/09/11 03:19:35;;;;;;;26.67;23.83;;;19.50;99.90;;;;;;5045396;28;20045;-73
2023/09/11 03:22:00;;;;;;;35.35;24.38;;;19.50;99.90;;;;;;5048594;28;20051;-73
2023/09/11 03:24:26;;;;;;;28.25;24.98;;;19.50;99.90;;;;;;5061427;28;20048;-73
2023/09/11 03:26:52;;;;;;;31.67;23.48;;;19.40;99.90;;;;;;5071188;28;20071;-73
2023/09/11 03:29:18;;;;;;;25.73;22.85;;;19.40;99.90;;;;;;5063744;28;20044;-73
2023/09/11 03:31:44;;;;;;;29.58;23.85;;;19.40;99.90;;;;;;5063007;28;20053;-73
2023/09/11 03:34:09;;;;;;;33.03;25.13;;;19.40;99.90;;;;;;5052959;28;20086;-73
2023/09/11 03:36:35;;;;;;;29.67;23.02;;;19.40;99.90;;;;;;5066751;28;20048;-73
2023/09/11 03:39:02;;;;;;;31.65;24.35;;;19.40;99.90;;;;;;5055841;28;20079;-73
2023/09/11 03:41:29;;;;;;;30.00;23.67;;;19.40;99.90;;;;;;5044004;28;20060;-73
2023/09/11 03:43:54;;;;;;;30.27;25.85;;;19.30;99.90;;;;;;5060593;28;20383;-72
2023/09/11 03:46:20;;;;;;;34.40;26.20;;;19.30;99.90;;;;;;5066346;28;20204;-73
2023/09/11 03:48:47;;;;;;;29.63;24.17;;;19.30;99.90;;;;;;5063158;28;20410;-72
2023/09/11 03:51:13;;;;;;;33.63;24.23;;;19.30;99.90;;;;;;5061702;28;20060;-73
2023/09/11 03:53:42;;;;;;;35.97;27.80;;;19.30;99.90;;;;;;5063160;28;20044;-73
2023/09/11 03:56:12;;;;;;;36.42;27.40;;;19.20;99.90;;;;;;5054711;28;20036;-73
2023/09/11 03:58:39;;;;;;;28.63;23.50;;;19.30;99.90;;;;;;5048878;28;20049;-72
2023/09/11 04:01:04;;;;;;;28.17;23.90;;;19.30;99.90;;;;;;5055147;28;20049;-73
2023/09/11 04:03:30;;;;;;;32.95;24.65;;;19.30;99.90;;;;;;5046463;28;20045;-72
2023/09/11 04:05:56;;;;;;;30.58;22.20;;;19.30;99.90;;;;;;5051518;28;20565;-73
2023/09/11 04:08:22;;;;;;;30.58;25.27;;;19.30;99.90;;;;;;5039457;28;20468;-73
2023/09/11 04:10:47;;;;;;;27.50;24.35;;;19.30;99.90;;;;;;5053486;28;20049;-73
2023/09/11 04:13:13;;;;;;;28.77;23.40;;;19.30;99.90;;;;;;5045363;28;20127;-73
2023/09/11 04:15:40;;;;;;;31.23;24.35;;;19.30;99.90;;;;;;5034580;28;20048;-73
2023/09/11 04:18:06;;;;;;;30.63;25.00;;;19.30;99.90;;;;;;5058908;28;20044;-73
2023/09/11 04:20:34;;;;;;;32.38;23.75;;;19.30;99.90;;;;;;5049700;28;20054;-73
2023/09/11 04:23:01;;;;;;;28.65;23.85;;;19.30;99.90;;;;;;5061080;28;20828;-73
2023/09/11 04:25:27;;;;;;;35.75;24.75;;;19.20;99.90;;;;;;5067201;28;20072;-73
2023/09/11 04:27:53;;;;;;;28.45;22.98;;;19.30;99.90;;;;;;5067936;28;20391;-73
2023/09/11 04:30:19;;;;;;;29.73;23.02;;;19.20;99.90;;;;;;5053311;28;20037;-73
2023/09/11 04:32:45;;;;;;;35.20;23.27;;;19.30;99.90;;;;;;5058908;28;20044;-73
2023/09/11 04:35:14;;;;;;;30.73;24.60;;;19.30;99.90;;;;;;5059058;28;20044;-73
2023/09/11 04:37:40;;;;;;;33.47;23.85;;;19.30;99.90;;;;;;5069473;28;20032;-73
2023/09/11 04:40:07;;;;;;;32.35;22.98;;;19.30;99.90;;;;;;5060009;28;20095;-73
2023/09/11 04:42:33;;;;;;;26.67;23.67;;;19.30;99.90;;;;;;5055324;28;20040;-73
2023/09/11 04:44:59;;;;;;;31.88;23.50;;;19.30;99.90;;;;;;5065006;28;20075;-73
2023/09/11 04:47:26;;;;;;;27.27;22.58;;;19.30;99.90;;;;;;5059611;28;20084;-73
2023/09/11 04:49:52;;;;;;;33.08;23.73;;;19.30;99.90;;;;;;5061582;28;20139;-73
2023/09/11 04:52:18;;;;;;;32.28;23.92;;;19.30;99.90;;;;;;5061797;28;20922;-72
2023/09/11 04:54:43;;;;;;;29.70;22.63;;;19.30;99.90;;;;;;5054733;28;20186;-73
2023/09/11 04:57:09;;;;;;;30.65;23.05;;;19.30;99.90;;;;;;5056666;28;20076;-73
2023/09/11 04:59:35;;;;;;;26.10;22.50;;;19.30;99.90;;;;;;5058049;28;20122;-73
2023/09/11 05:02:01;;;;;;;30.88;23.58;;;19.30;99.90;;;;;;5056977;28;20048;-73
2023/09/11 05:04:26;;;;;;;27.05;21.80;;;19.30;99.90;;;;;;5061026;28;20060;-73
2023/09/11 05:06:53;;;;;;;28.48;21.80;;;19.30;99.90;;;;;;5045142;28;20052;-73
2023/09/11 05:09:18;;;;;;;29.98;22.10;;;19.30;99.90;;;;;;5057503;28;20080;-72
2023/09/11 05:11:44;;;;;;;28.95;21.58;;;19.30;99.90;;;;;;5056316;28;20141;-73
2023/09/11 05:14:13;;;;;;;30.40;23.30;;;19.30;99.90;;;;;;5060039;28;20033;-73
2023/09/11 05:16:38;;;;;;;34.17;22.58;;;19.30;99.90;;;;;;5062934;28;20042;-73
2023/09/11 05:19:04;;;;;;;27.85;21.95;;;19.30;99.90;;;;;;5062256;28;20049;-73
2023/09/11 05:21:32;;;;;;;29.45;22.02;;;19.30;99.90;;;;;;5067402;28;20676;-73
2023/09/11 05:23:58;;;;;;;30.75;22.77;;;19.30;99.90;;;;;;5059801;28;20041;-73
2023/09/11 05:26:24;;;;;;;27.17;20.85;;;19.30;99.90;;;;;;5052132;28;20070;-73
2023/09/11 05:28:49;;;;;;;25.13;19.42;;;19.30;99.90;;;;;;5053704;28;20060;-73
2023/09/11 05:31:15;;;;;;;29.92;22.63;;;19.30;99.90;;;;;;5059579;28;20051;-73
2023/09/11 05:33:41;;;;;;;23.13;19.90;;;19.30;99.90;;;;;;5059093;28;20049;-73
2023/09/11 05:36:09;;;;;;;28.50;20.42;;;19.30;99.90;;;;;;5060409;28;20145;-73
2023/09/11 05:38:35;;;;;;;29.67;20.83;;;19.30;99.90;;;;;;5064455;28;20064;-73
2023/09/11 05:41:01;;;;;;;27.25;19.80;;;19.40;99.90;;;;;;5060299;28;20124;-73
2023/09/11 05:43:27;;;;;;;32.47;22.73;;;19.40;99.90;;;;;;5063711;28;20044;-72
2023/09/11 05:45:54;;;;;;;29.83;20.92;;;19.40;99.90;;;;;;5052881;28;20045;-72
2023/09/11 05:48:20;;;;;;;26.40;20.63;;;19.50;99.90;;;;;;5065416;28;20278;-73
2023/09/11 05:50:46;;;;;;;32.00;23.25;;;19.50;99.90;;;;;;5044765;28;20052;-73
2023/09/11 05:53:12;;;;;;;26.15;21.05;;;19.60;99.90;;;;;;5063469;28;20112;-73
2023/09/11 05:55:38;;;;;;;29.30;20.88;;;19.60;99.90;;;;;;5049915;28;20047;-73
2023/09/11 05:58:04;;;;;;;24.98;20.95;;;19.70;99.90;;;;;;5062588;28;20047;-72
2023/09/11 06:00:30;;;;;;;31.25;21.63;;;19.70;99.90;;;;;;5061192;28;20042;-72
2023/09/11 06:02:56;;;;;;;27.70;21.13;;;19.80;99.90;;;;;;5064549;28;20064;-72
2023/09/11 06:05:23;;;;;;;28.45;22.38;;;19.80;99.90;;;;;;5043243;28;20045;-72
2023/09/11 06:07:49;;;;;;;33.00;22.48;;;19.80;99.90;;;;;;5054698;28;20040;-72
2023/09/11 06:10:15;;;;;;;34.55;23.17;;;19.90;99.90;;;;;;5052680;28;20093;-72
2023/09/11 06:12:41;;;;;;;32.08;22.90;;;19.90;99.90;;;;;;5063484;28;20047;-72
2023/09/11 06:15:07;;;;;;;30.80;22.90;;;19.90;99.90;;;;;;5060571;28;20029;-73
2023/09/11 06:17:33;;;;;;;28.65;21.95;;;19.90;99.90;;;;;;5050569;28;20028;-72
2023/09/11 06:19:59;;;;;;;32.33;22.05;;;20.00;99.90;;;;;;5045826;28;20036;-72
2023/09/11 06:22:25;;;;;;;29.92;21.70;;;20.00;99.90;;;;;;5053792;28;20032;-72
2023/09/11 06:24:51;;;;;;;28.48;22.15;;;20.10;99.90;;;;;;5045880;28;20498;-72
2023/09/11 06:27:17;;;;;;;29.58;22.48;;;20.10;99.90;;;;;;5069005;28;20137;-73
2023/09/11 06:29:44;;;;;;;31.05;22.90;;;20.20;99.90;;;;;;5049040;28;20048;-73
2023/09/11 06:32:14;;;;;;;35.70;24.17;;;20.30;99.90;;;;;;5068544;28;20076;-73
2023/09/11 06:34:43;;;;;;;28.15;22.27;;;20.30;99.90;;;;;;5067541;28;20127;-73
2023/09/11 06:37:09;;;;;;;26.90;21.60;;;20.30;99.90;;;;;;5057796;28;20036;-72
2023/09/11 06:39:35;;;;;;;30.45;21.98;;;20.40;99.90;;;;;;5066347;28;20494;-72
2023/09/11 06:42:01;;;;;;;32.45;22.00;;;20.50;99.90;;;;;;5062726;28;20532;-72
2023/09/11 06:44:26;;;;;;;30.20;22.38;;;20.50;99.90;;;;;;5063581;28;20131;-72
2023/09/11 06:46:52;;;;;;;30.42;22.85;;;20.60;99.90;;;;;;5063817;28;20040;-72
2023/09/11 06:49:18;;;;;;;32.17;24.73;;;20.60;99.90;;;;;;5065632;28;20052;-72
2023/09/11 06:51:44;;;;;;;27.05;22.50;;;20.70;99.90;;;;;;5069371;28;20056;-72
2023/09/11 06:54:13;;;;;;;32.10;23.98;;;20.70;99.90;;;;;;5063324;28;20073;-72
2023/09/11 06:56:44;;;;;;;30.23;23.70;;;20.80;99.90;;;;;;5046644;28;20151;-72
2023/09/11 06:59:10;;;;;;;32.15;24.00;;;20.90;99.90;;;;;;5061706;28;20045;-72
2023/09/11 07:01:38;;;;;;;30.35;23.00;;;20.90;99.90;;;;;;5043797;28;20396;-72
2023/09/11 07:04:07;;;;;;;27.67;22.25;;;20.90;99.90;;;;;;5061461;28;20045;-72
2023/09/11 07:06:33;;;;;;;31.25;23.05;;;21.00;99.90;;;;;;5076560;28;20049;-72
2023/09/11 07:08:59;;;;;;;25.38;22.20;;;21.10;99.90;;;;;;5059940;28;20739;-72
2023/09/11 07:11:24;;;;;;;26.83;21.67;;;21.20;99.90;;;;;;5056001;28;20072;-72
2023/09/11 07:13:54;;;;;;;31.10;22.98;;;21.30;99.90;;;;;;5057182;28;20048;-72
2023/09/11 07:16:21;;;;;;;26.52;22.20;;;21.40;99.90;;;;;;5041766;28;20467;-72
2023/09/11 07:18:47;;;;;;;27.50;20.83;;;21.50;99.90;;;;;;5057827;28;20691;-72
2023/09/11 07:21:13;;;;;;;24.00;20.95;;;21.60;99.90;;;;;;5054938;28;20036;-72
2023/09/11 07:23:39;;;;;;;29.98;21.80;;;21.80;99.90;;;;;;5058888;28;20040;-72
2023/09/11 07:26:04;;;;;;;29.25;22.48;;;21.90;99.90;;;;;;5058994;28;20045;-72
2023/09/11 07:28:33;;;;;;;25.20;21.58;;;22.00;99.90;;;;;;5057461;28;20562;-73
2023/09/11 07:30:58;;;;;;;26.30;21.35;;;22.10;99.90;;;;;;5057586;28;20990;-73
2023/09/11 07:33:25;;;;;;;24.65;21.05;;;22.20;99.90;;;;;;5043221;28;20467;-73
2023/09/11 07:35:50;;;;;;;25.45;20.63;;;22.30;99.90;;;;;;5062639;28;20086;-73
2023/09/11 07:38:16;;;;;;;22.60;20.20;;;22.50;99.90;;;;;;5047238;28;20064;-73
2023/09/11 07:40:43;;;;;;;27.00;21.08;;;22.60;99.90;;;;;;5059741;28;20036;-73
2023/09/11 07:43:09;;;;;;;27.27;21.38;;;22.60;99.90;;;;;;5055439;28;20571;-73
2023/09/11 07:45:35;;;;;;;28.63;20.35;;;22.70;99.90;;;;;;5059329;28;20123;-73
2023/09/11 07:48:00;;;;;;;27.75;20.17;;;22.70;99.90;;;;;;5058107;28;20052;-73
2023/09/11 07:50:28;;;;;;;25.63;20.80;;;22.90;99.90;;;;;;5057447;28;20139;-73
2023/09/11 07:52:54;;;;;;;22.02;19.17;;;23.00;99.90;;;;;;5064795;28;20048;-73
2023/09/11 07:55:19;;;;;;;24.38;18.15;;;23.10;99.90;;;;;;5062527;28;20036;-73
2023/09/11 07:57:45;;;;;;;24.02;19.23;;;23.20;99.90;;;;;;5060750;28;20036;-73
2023/09/11 08:00:12;;;;;;;24.73;17.63;;;23.30;99.90;;;;;;5064105;28;20147;-73
2023/09/11 08:02:37;;;;;;;21.05;17.65;;;23.40;99.90;;;;;;5059925;28;20047;-73
2023/09/11 08:05:04;;;;;;;23.25;18.52;;;23.60;99.90;;;;;;5064373;28;20044;-73
2023/09/11 08:07:29;;;;;;;22.88;16.48;;;23.80;99.90;;;;;;5042931;28;20048;-73
2023/09/11 08:09:58;;;;;;;23.52;17.42;;;23.80;99.90;;;;;;5060127;28;20044;-73
2023/09/11 08:12:23;;;;;;;24.40;17.33;;;24.00;99.90;;;;;;5045310;28;20040;-73
2023/09/11 08:14:52;;;;;;;24.02;17.17;;;24.10;99.90;;;;;;5056382;28;20048;-73
2023/09/11 08:17:18;;;;;;;20.45;16.15;;;24.10;99.90;;;;;;5056509;28;20052;-73
2023/09/11 08:19:44;;;;;;;21.70;16.48;;;24.20;99.90;;;;;;5057173;28;20036;-73
2023/09/11 08:22:09;;;;;;;23.98;16.98;;;24.40;99.90;;;;;;5059447;28;20103;-74
2023/09/11 08:24:35;;;;;;;23.38;16.65;;;24.50;99.90;;;;;;5059676;28;20040;-73
2023/09/11 08:27:01;;;;;;;19.77;14.90;;;24.70;99.90;;;;;;5051018;28;20052;-73
2023/09/11 08:29:27;;;;;;;20.80;15.07;;;24.80;99.90;;;;;;5062505;28;20395;-73
2023/09/11 08:31:52;;;;;;;22.48;14.88;;;25.00;99.90;;;;;;5060730;28;20040;-73
2023/09/11 08:34:18;;;;;;;23.40;14.73;;;25.10;99.90;;;;;;5044448;28;20036;-73
2023/09/11 08:36:44;;;;;;;19.13;14.65;;;25.30;99.90;;;;;;5060408;28;21163;-73
2023/09/11 08:39:10;;;;;;;19.65;14.30;;;25.40;99.90;;;;;;5061779;28;20598;-73
2023/09/11 08:41:36;;;;;;;20.10;14.65;;;25.50;99.90;;;;;;5054686;28;20051;-74
2023/09/11 08:44:02;;;;;;;20.88;14.40;;;25.60;99.90;;;;;;5059234;28;21051;-73
2023/09/11 08:46:32;;;;;;;23.00;14.60;;;25.70;99.90;;;;;;5059140;28;20048;-74
2023/09/11 08:49:02;;;;;;;18.90;12.18;;;25.80;99.90;;;;;;5059510;28;20052;-73
2023/09/11 08:51:34;;;;;;;16.80;11.90;;;25.90;99.90;;;;;;5047365;28;20057;-73
2023/09/11 08:54:03;;;;;;;17.67;11.77;;;26.00;99.90;;;;;;5063509;28;20040;-73
2023/09/11 08:56:30;;;;;;;21.55;11.98;;;26.10;99.90;;;;;;5036982;28;20536;-73
2023/09/11 08:58:57;;;;;;;17.98;12.20;;;26.20;99.90;;;;;;5068947;28;20068;-74
2023/09/11 09:01:24;;;;;;;16.58;11.98;;;26.30;99.90;;;;;;5058802;28;20041;-73
2023/09/11 09:03:51;;;;;;;16.98;12.05;;;26.40;99.90;;;;;;5057658;28;20037;-73
2023/09/11 09:06:18;;;;;;;17.85;10.55;;;26.40;99.90;;;;;;5040389;28;20123;-73
2023/09/11 09:08:44;;;;;;;18.90;11.77;;;26.50;99.90;;;;;;5058780;28;20502;-73
2023/09/11 09:11:11;;;;;;;15.77;11.30;;;26.50;99.90;;;;;;5057258;28;20036;-73
2023/09/11 09:13:38;;;;;;;16.73;10.90;;;26.60;99.90;;;;;;5047562;28;20040;-74
2023/09/11 09:16:04;;;;;;;15.93;11.07;;;26.70;99.90;;;;;;5083993;28;20052;-73
2023/09/11 09:18:30;;;;;;;17.00;12.07;;;26.80;99.90;;;;;;5043901;28;20037;-73
2023/09/11 09:20:56;;;;;;;13.02;11.48;;;26.80;99.90;;;;;;5063128;28;20498;-74
2023/09/11 09:23:39;;;;;;;16.38;11.10;;;26.80;99.90;;;;;;5058438;28;20071;-74
2023/09/11 09:26:13;;;;;;;14.85;11.10;;;26.90;99.90;;;;;;5059341;28;20056;-74
2023/09/11 09:28:44;;;;;;;15.80;11.02;;;26.90;99.90;;;;;;5066495;28;20044;-74
2023/09/11 09:31:12;;;;;;;15.20;11.13;;;27.00;99.90;;;;;;5057231;28;20615;-74
2023/09/11 09:33:38;;;;;;;14.98;11.73;;;27.10;99.90;;;;;;5056509;28;20478;-74
2023/09/11 09:36:07;;;;;;;14.50;10.75;;;27.20;99.90;;;;;;5061478;28;20036;-74
2023/09/11 09:38:32;;;;;;;17.35;11.88;;;27.20;99.90;;;;;;5067161;28;20056;-74
2023/09/11 09:41:20;;;;;;;13.48;11.57;;;27.30;99.90;;;;;;5067298;28;20032;-74
2023/09/11 09:43:55;;;;;;;15.00;12.32;;;27.30;99.90;;;;;;5054024;28;20050;-74
2023/09/11 09:46:22;;;;;;;13.32;11.85;;;27.20;99.90;;;;;;5054922;28;20716;-74
2023/09/11 09:48:48;;;;;;;13.32;11.65;;;27.20;99.90;;;;;;5044859;28;20064;-74
2023/09/11 09:51:13;;;;;;;13.85;12.27;;;27.30;99.90;;;;;;5066538;28;20044;-74
2023/09/11 09:53:44;;;;;;;16.38;12.30;;;27.30;99.90;;;;;;5061177;28;20055;-73
2023/09/11 09:56:11;;;;;;;20.25;13.02;;;27.40;99.90;;;;;;5062099;28;20323;-73
2023/09/11 09:58:39;;;;;;;15.43;12.40;;;27.40;99.90;;;;;;5038877;28;20094;-74
2023/09/11 10:01:07;;;;;;;17.08;11.48;;;27.50;99.90;;;;;;5060625;28;20044;-74
2023/09/11 10:03:53;;;;;;;14.70;11.40;;;27.60;99.90;;;;;;5044529;28;20503;-74
2023/09/11 10:06:19;;;;;;;13.77;11.23;;;27.70;99.90;;;;;;5049509;28;20052;-74
2023/09/11 10:08:46;;;;;;;16.75;11.15;;;27.70;99.90;;;;;;5066251;28;20095;-74
2023/09/11 10:11:29;;;;;;;17.00;10.70;;;27.80;99.90;;;;;;5043139;28;20136;-74
2023/09/11 10:14:00;;;;;;;16.50;10.23;;;27.90;99.90;;;;;;5066000;28;20064;-74
2023/09/11 10:16:27;;;;;;;13.10;10.88;;;28.00;99.90;;;;;;5059753;28;20266;-73
2023/09/11 10:18:54;;;;;;;17.17;11.00;;;28.00;99.90;;;;;;5064071;28;20041;-74
2023/09/11 10:21:20;;;;;;;15.45;10.63;;;28.10;99.90;;;;;;5048979;28;20041;-74
2023/09/11 10:23:46;;;;;;;13.05;10.13;;;28.20;99.90;;;;;;5063720;28;20037;-74
2023/09/11 10:26:17;;;;;;;15.07;10.95;;;28.30;99.90;;;;;;5046829;28;20046;-73
2023/09/11 10:28:48;;;;;;;13.02;11.68;;;28.30;99.90;;;;;;5065233;28;20044;-74
2023/09/11 10:31:23;;;;;;;16.67;11.85;;;28.30;99.90;;;;;;5093625;27;20113;-73
2023/09/11 10:33:54;;;;;;;16.23;12.60;;;28.30;99.90;;;;;;5065593;28;20044;-73
2023/09/11 10:36:22;;;;;;;16.58;13.02;;;28.30;99.90;;;;;;5066589;28;20114;-74
2023/09/11 10:38:52;;;;;;;18.50;14.23;;;28.40;99.90;;;;;;5060646;28;20444;-74
2023/09/11 10:41:18;;;;;;;;;;;28.40;99.90;;;;;;5050875;28;20044;-74
2023/09/11 10:43:47;;;;;;;17.75;13.95;;;28.40;99.90;;;;;;5058750;28;20634;-73
2023/09/11 10:46:22;;;;;;;16.15;14.48;;;28.40;99.90;;;;;;5061461;28;20197;-74
2023/09/11 10:48:51;;;;;;;16.77;13.35;;;28.50;99.90;;;;;;5063313;28;20751;-74
2023/09/11 10:51:17;;;;;;;19.35;14.32;;;28.50;99.90;;;;;;5064140;28;20127;-74
2023/09/11 10:53:47;;;;;;;15.85;13.15;;;28.50;99.90;;;;;;5043492;28;20053;-74
2023/09/11 10:56:13;;;;;;;16.00;12.38;;;28.50;99.90;;;;;;5070292;28;20402;-74
2023/09/11 10:58:40;;;;;;;17.73;12.20;;;28.60;99.90;;;;;;5047877;28;20294;-74
2023/09/11 11:01:06;;;;;;;16.67;13.77;;;28.60;99.90;;;;;;5049572;28;20040;-74
2023/09/11 11:03:33;;;;;;;17.58;13.23;;;28.70;99.90;;;;;;5056508;28;20041;-73
2023/09/11 11:06:00;;;;;;;15.68;13.65;;;28.70;99.90;;;;;;5062533;28;20079;-74
2023/09/11 11:08:26;;;;;;;18.10;14.55;;;28.70;99.90;;;;;;5042435;28;20043;-74
2023/09/11 11:10:55;;;;;;;16.75;15.05;;;28.70;99.90;;;;;;5048060;28;20384;-74
2023/09/11 11:13:22;;;;;;;16.60;15.00;;;28.70;99.90;;;;;;5058047;28;20093;-74
2023/09/11 11:15:48;;;;;;;20.17;14.65;;;28.70;99.90;;;;;;5046567;28;20055;-74
2023/09/11 11:18:23;;;;;;;20.08;13.77;;;28.70;99.90;;;;;;5058393;28;20036;-74
2023/09/11 11:21:01;;;;;;;15.25;13.65;;;28.70;99.90;;;;;;5072369;28;20174;-74
2023/09/11 11:23:30;;;;;;;13.90;12.50;;;28.80;99.90;;;;;;5057873;28;20495;-74
2023/09/11 11:26:10;;;;;;;16.10;13.80;;;28.80;99.90;;;;;;5052877;28;20041;-73
2023/09/11 11:28:45;;;;;;;16.63;13.40;;;28.90;99.90;;;;;;5045354;28;20048;-74
2023/09/11 11:31:21;;;;;;;17.77;13.23;;;28.90;99.90;;;;;;5055562;28;20068;-74
2023/09/11 11:33:56;;;;;;;16.05;14.45;;;28.90;99.90;;;;;;5051762;28;20044;-74
2023/09/11 11:36:26;;;;;;;16.50;13.20;;;29.00;99.90;;;;;;5058701;28;20054;-74
2023/09/11 11:38:56;;;;;;;13.27;11.75;;;29.00;99.90;;;;;;5062340;28;20075;-74
2023/09/11 11:41:22;;;;;;;13.40;10.23;;;29.00;99.90;;;;;;5067801;28;20055;-74
2023/09/11 11:43:49;;;;;;;12.52;11.07;;;29.10;99.90;;;;;;5046152;28;20506;-73
2023/09/11 11:46:21;;;;;;;14.32;10.38;;;29.10;99.90;;;;;;5047264;28;20044;-73
2023/09/11 11:48:47;;;;;;;12.90;10.13;;;29.10;99.90;;;;;;5059063;28;20083;-73
2023/09/11 11:51:13;;;;;;;11.90;10.45;;;29.10;99.90;;;;;;5041652;28;21417;-73
2023/09/11 11:53:39;;;;;;;14.05;9.45;;;29.20;99.90;;;;;;5035546;28;20659;-73
2023/09/11 11:56:05;;;;;;;12.27;8.90;;;29.20;99.90;;;;;;5059287;28;20404;-73
2023/09/11 11:58:31;;;;;;;14.90;10.15;;;29.20;99.90;;;;;;5059314;28;20037;-73
2023/09/11 12:00:59;;;;;;;10.90;8.75;;;29.30;99.80;;;;;;5048640;28;20040;-73
2023/09/11 12:03:26;;;;;;;15.10;9.55;;;29.30;99.90;;;;;;5061268;28;20119;-73
2023/09/11 12:05:53;;;;;;;10.95;8.10;;;29.30;99.90;;;;;;5042769;28;20411;-73
2023/09/11 12:08:19;;;;;;;14.35;7.85;;;29.30;99.90;;;;;;5062946;28;20040;-73
2023/09/11 12:10:48;;;;;;;12.50;6.57;;;29.40;99.90;;;;;;5043579;28;20059;-73
2023/09/11 12:13:14;;;;;;;;;;;29.40;99.90;;;;;;5061633;28;20158;-73
2023/09/11 12:15:50;;;;;;;10.32;6.63;;;29.40;99.50;;;;;;5062858;28;19927;-73
2023/09/11 12:18:16;;;;;;;9.90;6.57;;;29.30;99.90;;;;;;5059804;28;20109;-73
2023/09/11 12:20:51;;;;;;;11.57;8.45;;;29.30;99.70;;;;;;5088913;28;20055;-73
2023/09/11 12:23:17;;;;;;;9.10;6.75;;;29.30;99.40;;;;;;5077281;28;20498;-73
2023/09/11 12:25:43;;;;;;;10.60;7.32;;;29.30;99.50;;;;;;5059130;28;20129;-73
2023/09/11 12:28:12;;;;;;;8.77;5.85;;;29.40;99.90;;;;;;5060889;28;20510;-73